createdAt,value
2023-04-09T00:01:11.138Z,96639.13
2023-04-09T00:03:41.245Z,96636.16
2023-04-09T00:06:12.764Z,96636.31
2023-04-09T00:08:41.694Z,96624.81
2023-04-09T00:11:08.527Z,96629.44
2023-04-09T00:13:39.583Z,96625.84
2023-04-09T00:16:07.854Z,96631.78
2023-04-09T00:18:34.638Z,96626.88
2023-04-09T00:21:04.005Z,96611.66
2023-04-09T00:23:33.241Z,96622.22
2023-04-09T00:26:07.884Z,96616.53
2023-04-09T00:28:42.693Z,96612.22
2023-04-09T00:31:14.884Z,96611.63
2023-04-09T00:33:46.590Z,96611.91
2023-04-09T00:36:16.118Z,96613.84
2023-04-09T00:38:43.041Z,96609.09
2023-04-09T00:41:14.618Z,96618.50
2023-04-09T00:43:41.353Z,96620.59
2023-04-09T00:46:10.498Z,96614.78
2023-04-09T00:48:42.146Z,96620.44
2023-04-09T00:51:14.247Z,96611.66
2023-04-09T00:53:46.267Z,96603.63
2023-04-09T00:56:17.179Z,96617.94
2023-04-09T00:58:46.583Z,96621.06
2023-04-09T01:01:17.931Z,96616.88
2023-04-09T01:03:47.726Z,96615.41
2023-04-09T01:06:39.023Z,96617.47
2023-04-09T01:09:18.259Z,96613.75
2023-04-09T01:12:21.451Z,96612.13
2023-04-09T01:14:59.426Z,96613.19
2023-04-09T01:17:36.117Z,96616.03
2023-04-09T01:20:07.718Z,96614.25
2023-04-09T01:23:02.818Z,96616.31
2023-04-09T01:25:44.075Z,96611.84
2023-04-09T01:28:46.004Z,96613.94
2023-04-09T01:31:21.638Z,96608.88
2023-04-09T01:33:52.752Z,96610.38
2023-04-09T01:36:28.442Z,96600.38
2023-04-09T01:39:05.983Z,96613.06
2023-04-09T01:41:41.127Z,96600.38
2023-04-09T01:44:12.151Z,96606.63
2023-04-09T01:46:40.345Z,96608.13
2023-04-09T01:49:12.699Z,96594.88
2023-04-09T01:51:39.810Z,96600.97
2023-04-09T01:54:08.805Z,96611.28
2023-04-09T01:56:46.226Z,96609.75
2023-04-09T01:59:18.394Z,96612.16
2023-04-09T02:02:04.099Z,96613.78
2023-04-09T02:04:35.744Z,96613.78
2023-04-09T02:07:09.320Z,96619.59
2023-04-09T02:09:46.430Z,96617.81
2023-04-09T02:12:18.570Z,96623.03
2023-04-09T02:14:47.356Z,96616.47
2023-04-09T02:17:17.487Z,96614.97
2023-04-09T02:19:48.331Z,96611.41
2023-04-09T02:22:17.095Z,96612.16
2023-04-09T02:24:43.976Z,96613.06
2023-04-09T02:27:17.839Z,96603.78
2023-04-09T02:29:50.538Z,96606.63
2023-04-09T02:32:17.425Z,96605.41
2023-04-09T02:34:48.811Z,96604.53
2023-04-09T02:37:15.588Z,96604.53
2023-04-09T02:39:44.705Z,96612.44
2023-04-09T02:42:13.768Z,96609.59
2023-04-09T02:44:44.433Z,96606.31
2023-04-09T02:47:15.259Z,96606.63
2023-04-09T02:49:46.756Z,96613.50
2023-04-09T02:52:24.452Z,96602.59
2023-04-09T02:54:53.531Z,96599.63
2023-04-09T02:57:28.121Z,96608.88
2023-04-09T02:59:55.749Z,96591.56
2023-04-09T03:02:22.756Z,96575.00
2023-04-09T03:04:56.872Z,96589.16
2023-04-09T03:07:23.776Z,96589.31
2023-04-09T03:09:55.311Z,96596.47
2023-04-09T03:12:28.317Z,96580.53
2023-04-09T03:14:59.989Z,96592.59
2023-04-09T03:17:32.230Z,96594.97
2023-04-09T03:20:03.776Z,96597.19
2023-04-09T03:22:44.270Z,96596.19
2023-04-09T03:25:31.953Z,96589.03
2023-04-09T03:28:11.428Z,96603.34
2023-04-09T03:30:50.758Z,96601.72
2023-04-09T03:33:22.963Z,96599.94
2023-04-09T03:36:01.875Z,96604.41
2023-04-09T03:38:53.723Z,96604.69
2023-04-09T03:41:31.689Z,96598.13
2023-04-09T03:44:07.487Z,96603.06
2023-04-09T03:46:47.193Z,96607.56
2023-04-09T03:49:18.335Z,96614.72
2023-04-09T03:51:50.020Z,96608.75
2023-04-09T03:54:16.894Z,96609.63
2023-04-09T03:56:47.027Z,96615.31
2023-04-09T03:59:21.989Z,96604.72
2023-04-09T04:01:53.763Z,96619.34
2023-04-09T04:04:25.774Z,96617.69
2023-04-09T04:06:56.514Z,96623.06
2023-04-09T04:09:29.876Z,96628.16
2023-04-09T04:12:19.599Z,96611.91
2023-04-09T04:15:09.608Z,96619.81
2023-04-09T04:17:44.425Z,96604.31
2023-04-09T04:20:24.390Z,96612.97
2023-04-09T04:23:02.800Z,96621.59
2023-04-09T04:25:36.123Z,96608.94
2023-04-09T04:28:05.838Z,96609.50
2023-04-09T04:30:41.835Z,96620.25
2023-04-09T04:33:13.709Z,96616.09
2023-04-09T04:35:50.661Z,96632.19
2023-04-09T04:38:38.364Z,96622.03
2023-04-09T04:41:13.991Z,96627.13
2023-04-09T04:43:48.356Z,96622.03
2023-04-09T04:46:22.995Z,96621.47
2023-04-09T04:48:54.740Z,96598.50
2023-04-09T04:51:27.870Z,96616.09
2023-04-09T04:54:05.083Z,96616.38
2023-04-09T04:56:39.259Z,96612.66
2023-04-09T04:59:26.524Z,96621.88
2023-04-09T05:01:59.986Z,96622.34
2023-04-09T05:04:32.744Z,96622.50
2023-04-09T05:07:00.579Z,96628.31
2023-04-09T05:09:32.255Z,96637.69
2023-04-09T05:12:11.424Z,96633.06
2023-04-09T05:14:41.708Z,96644.41
2023-04-09T05:17:08.934Z,96639.31
2023-04-09T05:19:43.031Z,96652.00
2023-04-09T05:22:11.737Z,96653.31
2023-04-09T05:24:41.728Z,96657.34
2023-04-09T05:27:13.297Z,96655.84
2023-04-09T05:29:43.349Z,96665.53
2023-04-09T05:32:14.876Z,96664.34
2023-04-09T05:34:41.791Z,96664.66
2023-04-09T05:37:11.311Z,96667.78
2023-04-09T05:39:46.557Z,96664.94
2023-04-09T05:42:15.996Z,96665.41
2023-04-09T05:45:03.910Z,96652.44
2023-04-09T05:47:35.337Z,96656.91
2023-04-09T05:50:17.087Z,96662.72
2023-04-09T05:52:46.763Z,96654.22
2023-04-09T05:55:14.897Z,96653.78
2023-04-09T05:57:56.102Z,96642.75
2023-04-09T06:00:25.229Z,96640.81
2023-04-09T06:02:52.214Z,96657.38
2023-04-09T06:05:24.577Z,96652.00
2023-04-09T06:07:56.756Z,96657.81
2023-04-09T06:10:29.189Z,96668.84
2023-04-09T06:13:00.992Z,96657.81
2023-04-09T06:15:35.333Z,96666.31
2023-04-09T06:18:07.480Z,96664.66
2023-04-09T06:20:34.228Z,96670.34
2023-04-09T06:23:01.048Z,96670.63
2023-04-09T06:25:27.894Z,96668.09
2023-04-09T06:27:59.515Z,96661.84
2023-04-09T06:30:34.095Z,96675.41
2023-04-09T06:33:03.176Z,96660.94
2023-04-09T06:35:32.379Z,96676.91
2023-04-09T06:38:01.506Z,96679.47
2023-04-09T06:40:35.440Z,96667.38
2023-04-09T06:43:06.105Z,96686.00
2023-04-09T06:45:52.406Z,96669.00
2023-04-09T06:48:21.721Z,96681.22
2023-04-09T06:50:53.012Z,96669.41
2023-04-09T06:53:20.241Z,96673.72
2023-04-09T06:55:51.865Z,96674.44
2023-04-09T06:58:18.600Z,96681.88
2023-04-09T07:00:47.879Z,96684.06
2023-04-09T07:03:19.510Z,96681.94
2023-04-09T07:05:49.411Z,96684.75
2023-04-09T07:08:23.613Z,96689.78
2023-04-09T07:10:52.735Z,96673.31
2023-04-09T07:13:22.687Z,96679.88
2023-04-09T07:15:52.014Z,96686.50
2023-04-09T07:18:21.095Z,96690.66
2023-04-09T07:20:50.138Z,96687.00
2023-04-09T07:23:19.595Z,96685.03
2023-04-09T07:25:48.756Z,96693.78
2023-04-09T07:28:18.143Z,96689.84
2023-04-09T07:30:46.415Z,96691.75
2023-04-09T07:33:21.118Z,96694.00
2023-04-09T07:35:47.945Z,96692.41
2023-04-09T07:38:19.500Z,96694.47
2023-04-09T07:40:46.351Z,96690.78
2023-04-09T07:43:17.574Z,96686.22
2023-04-09T07:45:56.019Z,96689.88
2023-04-09T07:48:25.070Z,96685.31
2023-04-09T07:50:51.872Z,96681.13
2023-04-09T07:53:23.529Z,96675.94
2023-04-09T07:55:55.183Z,96683.69
2023-04-09T07:58:26.515Z,96695.34
2023-04-09T08:00:55.781Z,96690.16
2023-04-09T08:03:30.325Z,96692.91
2023-04-09T08:06:03.959Z,96687.34
2023-04-09T08:08:36.156Z,96693.78
2023-04-09T08:11:07.820Z,96698.38
2023-04-09T08:13:36.878Z,96694.44
2023-04-09T08:16:10.810Z,96702.59
2023-04-09T08:18:39.944Z,96694.28
2023-04-09T08:21:11.701Z,96701.75
2023-04-09T08:23:40.572Z,96687.50
2023-04-09T08:26:12.251Z,96704.72
2023-04-09T08:28:43.683Z,96707.81
2023-04-09T08:31:13.643Z,96699.63
2023-04-09T08:33:43.050Z,96683.91
2023-04-09T08:36:16.282Z,96686.13
2023-04-09T08:38:50.511Z,96711.31
2023-04-09T08:41:26.324Z,96705.97
2023-04-09T08:43:58.792Z,96711.66
2023-04-09T08:46:29.038Z,96691.34
2023-04-09T08:48:58.220Z,96721.34
2023-04-09T08:51:29.854Z,96722.94
2023-04-09T08:54:04.747Z,96721.69
2023-04-09T08:56:34.337Z,96723.31
2023-04-09T08:59:05.913Z,96716.72
2023-04-09T09:01:40.678Z,96711.41
2023-04-09T09:04:11.684Z,96704.97
2023-04-09T09:06:43.196Z,96717.59
2023-04-09T09:09:17.177Z,96716.22
2023-04-09T09:11:52.544Z,96717.81
2023-04-09T09:14:23.845Z,96712.13
2023-04-09T09:16:56.886Z,96713.75
2023-04-09T09:19:26.389Z,96715.97
2023-04-09T09:22:11.151Z,96713.50
2023-04-09T09:24:53.870Z,96718.09
2023-04-09T09:27:41.818Z,96720.31
2023-04-09T09:30:32.633Z,96721.91
2023-04-09T09:33:10.819Z,96718.34
2023-04-09T09:35:54.410Z,96712.41
2023-04-09T09:38:21.697Z,96713.59
2023-04-09T09:40:49.731Z,96713.38
2023-04-09T09:43:16.651Z,96730.09
2023-04-09T09:45:46.768Z,96719.31
2023-04-09T09:48:20.716Z,96719.94
2023-04-09T09:50:54.998Z,96728.50
2023-04-09T09:53:27.692Z,96728.50
2023-04-09T09:55:59.692Z,96720.44
2023-04-09T09:58:36.977Z,96723.94
2023-04-09T10:01:12.159Z,96722.31
2023-04-09T10:03:44.630Z,96725.03
2023-04-09T10:06:16.986Z,96724.78
2023-04-09T10:08:44.527Z,96712.41
2023-04-09T10:11:13.515Z,96718.59
2023-04-09T10:13:56.808Z,96712.38
2023-04-09T10:16:29.250Z,96707.28
2023-04-09T10:19:01.790Z,96722.75
2023-04-09T10:22:01.819Z,96712.34
2023-04-09T10:24:28.621Z,96702.91
2023-04-09T10:27:09.199Z,96709.13
2023-04-09T10:29:45.856Z,96713.59
2023-04-09T10:32:16.154Z,96704.91
2023-04-09T10:34:46.216Z,96713.59
2023-04-09T10:37:22.863Z,96714.31
2023-04-09T10:39:51.772Z,96719.91
2023-04-09T10:42:45.522Z,96705.03
2023-04-09T10:45:21.907Z,96718.28
2023-04-09T10:47:51.852Z,96707.53
2023-04-09T10:50:32.677Z,96719.28
2023-04-09T10:53:00.944Z,96713.69
2023-04-09T10:55:44.676Z,96702.28
2023-04-09T10:58:16.355Z,96713.19
2023-04-09T11:00:45.603Z,96713.41
2023-04-09T11:03:25.293Z,96711.94
2023-04-09T11:05:58.890Z,96712.81
2023-04-09T11:08:30.286Z,96706.47
2023-04-09T11:11:01.720Z,96709.44
2023-04-09T11:13:35.257Z,96713.88
2023-04-09T11:16:11.338Z,96694.44
2023-04-09T11:18:43.681Z,96706.31
2023-04-09T11:21:19.816Z,96693.06
2023-04-09T11:23:53.199Z,96679.31
2023-04-09T11:26:36.144Z,96700.00
2023-04-09T11:29:09.441Z,96695.66
2023-04-09T11:31:37.003Z,96697.25
2023-04-09T11:34:08.192Z,96699.34
2023-04-09T11:36:38.390Z,96693.41
2023-04-09T11:39:12.434Z,96705.72
2023-04-09T11:41:39.380Z,96704.59
2023-04-09T11:44:13.460Z,96703.84
2023-04-09T11:46:41.490Z,96705.97
2023-04-09T11:49:08.957Z,96706.97
2023-04-09T11:51:38.817Z,96704.13
2023-04-09T11:54:10.429Z,96714.66
2023-04-09T11:56:43.149Z,96711.81
2023-04-09T11:59:15.522Z,96700.69
2023-04-09T12:01:53.747Z,96713.81
2023-04-09T12:04:26.673Z,96715.19
2023-04-09T12:07:00.972Z,96702.91
2023-04-09T12:09:32.948Z,96706.00
2023-04-09T12:12:02.607Z,96707.75
2023-04-09T12:14:31.755Z,96708.00
2023-04-09T12:17:01.601Z,96704.63
2023-04-09T12:19:36.652Z,96697.19
2023-04-09T12:22:03.469Z,96701.16
2023-04-09T12:24:34.985Z,96704.97
2023-04-09T12:27:04.405Z,96700.63
2023-04-09T12:29:33.954Z,96707.94
2023-04-09T12:32:08.899Z,96706.19
2023-04-09T12:34:38.092Z,96707.19
2023-04-09T12:37:07.373Z,96710.66
2023-04-09T12:39:41.866Z,96708.03
2023-04-09T12:42:15.694Z,96706.78
2023-04-09T12:44:45.159Z,96699.69
2023-04-09T12:47:12.603Z,96691.97
2023-04-09T12:49:42.220Z,96687.03
2023-04-09T12:52:11.428Z,96706.22
2023-04-09T12:54:42.835Z,96694.28
2023-04-09T12:57:14.589Z,96690.78
2023-04-09T12:59:44.356Z,96691.00
2023-04-09T13:02:18.871Z,96687.94
2023-04-09T13:04:51.263Z,96698.22
2023-04-09T13:07:22.909Z,96694.28
2023-04-09T13:09:52.586Z,96693.75
2023-04-09T13:12:21.703Z,96692.28
2023-04-09T13:14:48.856Z,96684.00
2023-04-09T13:17:18.685Z,96696.91
2023-04-09T13:19:46.192Z,96699.88
2023-04-09T13:22:17.467Z,96707.47
2023-04-09T13:24:44.305Z,96701.75
2023-04-09T13:27:18.980Z,96694.44
2023-04-09T13:29:45.849Z,96693.56
2023-04-09T13:32:14.928Z,96697.19
2023-04-09T13:34:51.383Z,96691.38
2023-04-09T13:37:20.866Z,96689.25
2023-04-09T13:39:51.261Z,96682.03
2023-04-09T13:42:20.418Z,96666.50
2023-04-09T13:44:49.865Z,96666.94
2023-04-09T13:47:19.035Z,96663.66
2023-04-09T13:49:47.924Z,96668.88
2023-04-09T13:52:14.726Z,96666.13
2023-04-09T13:54:43.759Z,96660.94
2023-04-09T13:57:17.588Z,96672.19
2023-04-09T13:59:49.827Z,96660.03
2023-04-09T14:02:19.626Z,96656.94
2023-04-09T14:04:51.438Z,96661.50
2023-04-09T14:07:20.733Z,96665.66
2023-04-09T14:09:47.581Z,96664.16
2023-04-09T14:12:16.684Z,96660.41
2023-04-09T14:14:49.153Z,96670.78
2023-04-09T14:17:21.046Z,96668.78
2023-04-09T14:19:47.873Z,96662.34
2023-04-09T14:22:19.461Z,96653.66
2023-04-09T14:24:48.859Z,96668.38
2023-04-09T14:27:20.707Z,96668.50
2023-04-09T14:29:53.437Z,96648.06
2023-04-09T14:32:25.580Z,96656.03
2023-04-09T14:34:57.256Z,96666.28
2023-04-09T14:37:24.048Z,96662.81
2023-04-09T14:39:53.228Z,96653.59
2023-04-09T14:42:25.518Z,96676.78
2023-04-09T14:44:55.500Z,96659.75
2023-04-09T14:47:27.164Z,96647.88
2023-04-09T14:49:53.993Z,96641.75
2023-04-09T14:52:23.437Z,96649.06
2023-04-09T14:54:55.548Z,96641.75
2023-04-09T14:57:27.320Z,96651.38
2023-04-09T14:59:56.655Z,96650.88
2023-04-09T15:02:23.637Z,96643.03
2023-04-09T15:04:55.503Z,96644.41
2023-04-09T15:07:24.947Z,96646.53
2023-04-09T15:09:54.649Z,96658.06
2023-04-09T15:12:23.858Z,96650.13
2023-04-09T15:14:58.535Z,96643.34
2023-04-09T15:17:29.238Z,96647.03
2023-04-09T15:19:58.918Z,96644.94
2023-04-09T15:22:33.035Z,96646.41
2023-04-09T15:25:04.624Z,96644.19
2023-04-09T15:27:33.479Z,96627.38
2023-04-09T15:30:05.925Z,96639.94
2023-04-09T15:32:35.244Z,96637.31
2023-04-09T15:35:02.106Z,96648.41
2023-04-09T15:37:31.302Z,96646.94
2023-04-09T15:39:58.132Z,96633.59
2023-04-09T15:42:29.738Z,96653.41
2023-04-09T15:44:59.151Z,96637.81
2023-04-09T15:47:25.902Z,96643.97
2023-04-09T15:49:56.122Z,96642.59
2023-04-09T15:52:22.965Z,96641.22
2023-04-09T15:54:49.712Z,96636.88
2023-04-09T15:57:19.544Z,96639.53
2023-04-09T15:59:50.917Z,96633.28
2023-04-09T16:02:20.780Z,96628.94
2023-04-09T16:04:50.284Z,96636.78
2023-04-09T16:07:21.655Z,96627.16
2023-04-09T16:09:53.233Z,96634.47
2023-04-09T16:12:23.466Z,96639.97
2023-04-09T16:14:50.333Z,96631.91
2023-04-09T16:17:25.073Z,96627.97
2023-04-09T16:19:54.311Z,96633.88
2023-04-09T16:22:23.566Z,96626.38
2023-04-09T16:24:52.697Z,96615.16
2023-04-09T16:27:24.338Z,96634.44
2023-04-09T16:29:56.286Z,96638.34
2023-04-09T16:32:30.473Z,96641.41
2023-04-09T16:35:00.949Z,96644.25
2023-04-09T16:37:31.337Z,96635.47
2023-04-09T16:40:00.806Z,96628.28
2023-04-09T16:42:30.598Z,96636.75
2023-04-09T16:44:59.623Z,96638.63
2023-04-09T16:47:34.274Z,96640.09
2023-04-09T16:50:04.290Z,96628.56
2023-04-09T16:52:37.009Z,96643.72
2023-04-09T16:55:10.523Z,96638.72
2023-04-09T16:57:42.398Z,96627.63
2023-04-09T17:00:10.216Z,96645.19
2023-04-09T17:02:37.397Z,96634.41
2023-04-09T17:05:04.591Z,96639.38
2023-04-09T17:07:36.108Z,96640.09
2023-04-09T17:10:11.028Z,96643.50
2023-04-09T17:12:44.378Z,96635.13
2023-04-09T17:15:11.543Z,96641.66
2023-04-09T17:17:47.980Z,96641.66
2023-04-09T17:20:19.551Z,96642.41
2023-04-09T17:22:54.414Z,96648.00
2023-04-09T17:25:26.361Z,96642.81
2023-04-09T17:27:56.153Z,96629.34
2023-04-09T17:30:25.937Z,96651.91
2023-04-09T17:32:57.588Z,96651.25
2023-04-09T17:35:26.685Z,96651.91
2023-04-09T17:37:53.679Z,96653.28
2023-04-09T17:40:23.134Z,96650.19
2023-04-09T17:42:54.649Z,96657.69
2023-04-09T17:45:23.756Z,96650.47
2023-04-09T17:47:51.325Z,96659.81
2023-04-09T17:50:22.514Z,96664.88
2023-04-09T17:52:54.166Z,96658.31
2023-04-09T17:55:24.003Z,96657.44
2023-04-09T17:57:52.992Z,96655.50
2023-04-09T18:00:24.609Z,96659.09
2023-04-09T18:02:54.198Z,96657.00
2023-04-09T18:05:23.799Z,96673.91
2023-04-09T18:07:56.904Z,96658.53
2023-04-09T18:10:26.298Z,96675.28
2023-04-09T18:12:56.128Z,96673.56
2023-04-09T18:15:22.929Z,96675.53
2023-04-09T18:17:54.468Z,96676.06
2023-04-09T18:20:23.744Z,96673.81
2023-04-09T18:22:50.601Z,96661.13
2023-04-09T18:25:23.400Z,96690.59
2023-04-09T18:27:50.303Z,96680.44
2023-04-09T18:30:21.894Z,96685.41
2023-04-09T18:32:53.409Z,96686.78
2023-04-09T18:35:22.858Z,96697.44
2023-04-09T18:37:49.677Z,96672.31
2023-04-09T18:40:17.979Z,96698.69
2023-04-09T18:42:49.384Z,96698.22
2023-04-09T18:45:16.145Z,96694.06
2023-04-09T18:47:48.093Z,96699.63
2023-04-09T18:50:20.084Z,96702.09
2023-04-09T18:52:46.978Z,96705.69
2023-04-09T18:55:16.967Z,96712.88
2023-04-09T18:57:46.217Z,96712.41
2023-04-09T19:00:15.688Z,96715.00
2023-04-09T19:02:45.254Z,96724.03
2023-04-09T19:05:17.758Z,96720.56
2023-04-09T19:07:49.774Z,96720.81
2023-04-09T19:10:16.718Z,96725.66
2023-04-09T19:12:53.835Z,96720.81
2023-04-09T19:15:29.492Z,96728.00
2023-04-09T19:18:03.273Z,96733.19
2023-04-09T19:20:30.167Z,96720.94
2023-04-09T19:22:57.593Z,96720.94
2023-04-09T19:25:31.542Z,96720.81
2023-04-09T19:28:00.740Z,96722.06
2023-04-09T19:30:30.092Z,96720.69
2023-04-09T19:33:01.682Z,96715.38
2023-04-09T19:35:40.618Z,96726.88
2023-04-09T19:38:09.891Z,96723.53
2023-04-09T19:40:36.794Z,96723.03
2023-04-09T19:43:10.732Z,96727.72
2023-04-09T19:45:42.781Z,96722.75
2023-04-09T19:48:14.435Z,96732.03
2023-04-09T19:50:46.396Z,96728.19
2023-04-09T19:53:13.324Z,96735.97
2023-04-09T19:55:42.412Z,96725.06
2023-04-09T19:58:14.217Z,96725.69
2023-04-09T20:00:41.261Z,96734.84
2023-04-09T20:03:10.720Z,96727.03
2023-04-09T20:05:37.584Z,96745.22
2023-04-09T20:08:04.858Z,96729.38
2023-04-09T20:10:31.742Z,96726.38
2023-04-09T20:12:58.591Z,96725.41
2023-04-09T20:15:27.663Z,96731.69
2023-04-09T20:17:57.561Z,96734.41
2023-04-09T20:20:32.174Z,96722.16
2023-04-09T20:23:01.991Z,96709.22
2023-04-09T20:25:35.031Z,96726.09
2023-04-09T20:28:06.606Z,96720.09
2023-04-09T20:30:38.390Z,96718.03
2023-04-09T20:33:10.038Z,96721.34
2023-04-09T20:35:39.361Z,96714.91
2023-04-09T20:38:11.276Z,96709.03
2023-04-09T20:40:38.098Z,96713.56
2023-04-09T20:43:07.400Z,96725.44
2023-04-09T20:45:34.261Z,96716.50
2023-04-09T20:48:01.730Z,96721.25
2023-04-09T20:50:33.385Z,96720.47
2023-04-09T20:53:05.211Z,96716.78
2023-04-09T20:55:35.851Z,96726.81
2023-04-09T20:58:03.112Z,96729.50
2023-04-09T21:00:32.974Z,96717.13
2023-04-09T21:03:04.717Z,96724.78
2023-04-09T21:05:36.437Z,96723.16
2023-04-09T21:08:05.919Z,96726.34
2023-04-09T21:10:35.179Z,96729.66
2023-04-09T21:13:04.463Z,96732.97
2023-04-09T21:15:31.311Z,96722.06
2023-04-09T21:18:03.151Z,96730.44
2023-04-09T21:20:30.565Z,96723.78
2023-04-09T21:22:59.848Z,96723.97
2023-04-09T21:25:29.805Z,96747.59
2023-04-09T21:27:59.437Z,96729.91
2023-04-09T21:30:32.403Z,96738.44
2023-04-09T21:33:02.506Z,96741.28
2023-04-09T21:35:37.305Z,96736.94
2023-04-09T21:38:09.128Z,96736.81
2023-04-09T21:40:38.454Z,96725.50
2023-04-09T21:43:11.002Z,96727.59
2023-04-09T21:45:40.831Z,96737.81
2023-04-09T21:48:12.558Z,96730.56
2023-04-09T21:50:44.120Z,96730.28
2023-04-09T21:53:14.110Z,96734.50
2023-04-09T21:55:40.927Z,96732.59
2023-04-09T21:58:14.994Z,96730.22
2023-04-09T22:00:49.581Z,96723.53
2023-04-09T22:03:16.713Z,96729.66
2023-04-09T22:05:47.942Z,96741.91
2023-04-09T22:08:18.545Z,96739.22
2023-04-09T22:10:50.412Z,96744.13
2023-04-09T22:13:19.840Z,96744.75
2023-04-09T22:15:51.223Z,96745.19
2023-04-09T22:18:21.000Z,96739.97
2023-04-09T22:20:50.101Z,96746.72
2023-04-09T22:23:19.365Z,96758.69
2023-04-09T22:25:48.620Z,96761.38
2023-04-09T22:28:18.860Z,96759.47
2023-04-09T22:30:50.736Z,96769.47
2023-04-09T22:33:24.642Z,96760.97
2023-04-09T22:35:57.283Z,96757.22
2023-04-09T22:38:26.756Z,96749.19
2023-04-09T22:40:53.600Z,96746.78
2023-04-09T22:43:24.947Z,96744.41
2023-04-09T22:45:54.551Z,96746.34
2023-04-09T22:48:26.144Z,96740.97
2023-04-09T22:50:57.974Z,96740.72
2023-04-09T22:53:29.774Z,96738.19
2023-04-09T22:56:02.317Z,96738.19
2023-04-09T22:58:29.196Z,96735.97
2023-04-09T23:01:03.240Z,96744.31
2023-04-09T23:03:30.503Z,96735.22
2023-04-09T23:06:03.326Z,96735.06
2023-04-09T23:08:30.121Z,96722.53
2023-04-09T23:10:57.462Z,96732.38
2023-04-09T23:13:26.618Z,96730.59
2023-04-09T23:15:55.960Z,96733.28
2023-04-09T23:18:23.166Z,96725.69
2023-04-09T23:20:55.132Z,96724.19
2023-04-09T23:23:24.429Z,96726.88
2023-04-09T23:25:53.938Z,96721.38
2023-04-09T23:28:25.929Z,96719.72
2023-04-09T23:30:55.137Z,96711.22
2023-04-09T23:33:24.365Z,96708.81
2023-04-09T23:35:53.684Z,96707.31
2023-04-09T23:38:25.341Z,96717.63
2023-04-09T23:40:54.579Z,96717.63
2023-04-09T23:43:24.567Z,96713.00
2023-04-09T23:45:51.595Z,96720.16
2023-04-09T23:48:18.429Z,96714.34
2023-04-09T23:50:45.233Z,96706.41
2023-04-09T23:53:12.018Z,96706.88
2023-04-09T23:55:42.625Z,96712.81
2023-04-09T23:58:11.871Z,96711.75
